createdAt,value
2023-01-22T00:00:52.392Z,12.80
2023-01-22T00:01:52.383Z,13.40
2023-01-22T00:02:52.420Z,12.60
2023-01-22T00:03:52.429Z,13.00
2023-01-22T00:04:52.348Z,13.80
2023-01-22T00:05:52.335Z,13.80
2023-01-22T00:06:52.307Z,14.10
2023-01-22T00:07:52.298Z,13.30
2023-01-22T00:08:52.283Z,13.60
2023-01-22T00:09:52.276Z,13.20
2023-01-22T00:10:52.248Z,13.10
2023-01-22T00:11:52.296Z,13.20
2023-01-22T00:12:52.231Z,13.40
2023-01-22T00:13:52.214Z,12.50
2023-01-22T00:14:52.201Z,13.20
2023-01-22T00:15:52.240Z,12.50
2023-01-22T00:16:52.226Z,13.10
2023-01-22T00:17:52.162Z,12.90
2023-01-22T00:18:52.173Z,13.00
2023-01-22T00:19:59.722Z,12.40
2023-01-22T00:20:52.183Z,12.30
2023-01-22T00:21:52.151Z,12.90
2023-01-22T00:22:52.101Z,13.30
2023-01-22T00:23:52.098Z,12.50
2023-01-22T00:24:52.105Z,12.30
2023-01-22T00:25:52.079Z,13.30
2023-01-22T00:26:52.073Z,13.30
2023-01-22T00:27:52.054Z,13.70
2023-01-22T00:28:52.038Z,13.40
2023-01-22T00:29:52.042Z,12.60
2023-01-22T00:30:52.179Z,13.10
2023-01-22T00:31:52.130Z,13.50
2023-01-22T00:32:52.010Z,12.60
2023-01-22T00:33:51.982Z,12.30
2023-01-22T00:34:51.971Z,12.60
2023-01-22T00:35:51.972Z,13.10
2023-01-22T00:36:51.998Z,12.40
2023-01-22T00:37:51.912Z,13.60
2023-01-22T00:38:51.931Z,13.90
2023-01-22T00:39:51.916Z,12.70
2023-01-22T00:40:51.902Z,12.30
2023-01-22T00:41:51.917Z,12.90
2023-01-22T00:42:51.902Z,14.50
2023-01-22T00:43:52.979Z,13.00
2023-01-22T00:44:51.851Z,14.30
2023-01-22T00:45:51.840Z,12.20
2023-01-22T00:46:51.861Z,14.30
2023-01-22T00:47:51.804Z,12.70
2023-01-22T00:48:51.788Z,14.20
2023-01-22T00:49:51.779Z,13.40
2023-01-22T00:50:51.804Z,12.60
2023-01-22T00:51:51.787Z,13.20
2023-01-22T00:52:51.765Z,13.60
2023-01-22T00:53:51.744Z,13.80
2023-01-22T00:54:51.747Z,14.20
2023-01-22T00:55:51.724Z,13.60
2023-01-22T00:56:51.726Z,13.40
2023-01-22T00:57:51.689Z,14.50
2023-01-22T00:58:51.718Z,14.20
2023-01-22T00:59:51.660Z,13.90
2023-01-22T01:00:51.691Z,14.60
2023-01-22T01:01:51.652Z,14.10
2023-01-22T01:02:51.620Z,14.00
2023-01-22T01:03:51.618Z,13.00
2023-01-22T01:04:51.619Z,12.90
2023-01-22T01:05:51.552Z,13.00
2023-01-22T01:06:51.587Z,12.30
2023-01-22T01:07:51.568Z,13.60
2023-01-22T01:08:51.534Z,13.50
2023-01-22T01:09:51.524Z,13.10
2023-01-22T01:10:51.515Z,13.30
2023-01-22T01:11:51.512Z,13.70
2023-01-22T01:12:51.492Z,15.50
2023-01-22T01:13:51.484Z,14.90
2023-01-22T01:14:51.461Z,14.40
2023-01-22T01:15:51.471Z,15.00
2023-01-22T01:16:51.440Z,13.90
2023-01-22T01:17:51.461Z,13.80
2023-01-22T01:18:51.411Z,14.40
2023-01-22T01:19:51.425Z,13.80
2023-01-22T01:20:51.382Z,14.30
2023-01-22T01:21:51.383Z,14.20
2023-01-22T01:22:51.403Z,13.80
2023-01-22T01:23:51.351Z,13.40
2023-01-22T01:24:51.367Z,12.50
2023-01-22T01:25:51.315Z,12.70
2023-01-22T01:26:51.319Z,13.40
2023-01-22T01:27:51.324Z,13.70
2023-01-22T01:28:51.289Z,13.70
2023-01-22T01:29:51.306Z,12.20
2023-01-22T01:30:51.325Z,12.90
2023-01-22T01:31:51.265Z,12.90
2023-01-22T01:32:51.252Z,13.90
2023-01-22T01:33:51.225Z,12.20
2023-01-22T01:34:51.230Z,12.90
2023-01-22T01:35:51.222Z,13.20
2023-01-22T01:36:51.196Z,12.80
2023-01-22T01:37:51.181Z,14.30
2023-01-22T01:38:51.160Z,12.50
2023-01-22T01:39:51.155Z,12.30
2023-01-22T01:40:51.171Z,13.40
2023-01-22T01:41:51.122Z,13.20
2023-01-22T01:42:51.142Z,14.40
2023-01-22T01:43:51.103Z,14.60
2023-01-22T01:44:51.100Z,13.20
2023-01-22T01:45:51.100Z,13.70
2023-01-22T01:46:51.178Z,13.50
2023-01-22T01:47:51.090Z,13.10
2023-01-22T01:48:51.034Z,12.70
2023-01-22T01:49:51.025Z,13.30
2023-01-22T01:50:51.045Z,12.80
2023-01-22T01:51:51.007Z,13.30
2023-01-22T01:52:51.020Z,13.70
2023-01-22T01:53:50.992Z,13.30
2023-01-22T01:54:50.951Z,14.30
2023-01-22T01:55:50.952Z,14.50
2023-01-22T01:56:50.938Z,13.80
2023-01-22T01:57:50.931Z,12.80
2023-01-22T01:58:50.911Z,12.40
2023-01-22T01:59:50.901Z,13.70
2023-01-22T02:00:50.917Z,13.10
2023-01-22T02:01:50.933Z,14.40
2023-01-22T02:02:50.865Z,14.00
2023-01-22T02:03:50.861Z,15.00
2023-01-22T02:04:50.848Z,14.00
2023-01-22T02:05:50.822Z,14.30
2023-01-22T02:06:50.828Z,13.40
2023-01-22T02:07:50.802Z,14.70
2023-01-22T02:08:50.810Z,15.50
2023-01-22T02:09:50.795Z,15.00
2023-01-22T02:10:50.770Z,14.00
2023-01-22T02:11:50.757Z,15.50
2023-01-22T02:12:50.761Z,13.00
2023-01-22T02:13:51.488Z,14.20
2023-01-22T02:14:50.722Z,13.80
2023-01-22T02:15:50.704Z,13.50
2023-01-22T02:16:50.711Z,12.60
2023-01-22T02:17:50.682Z,13.30
2023-01-22T02:18:50.673Z,14.70
2023-01-22T02:19:50.645Z,14.40
2023-01-22T02:20:50.641Z,14.00
2023-01-22T02:21:50.645Z,14.70
2023-01-22T02:22:50.631Z,13.90
2023-01-22T02:23:50.615Z,15.20
2023-01-22T02:24:50.582Z,15.10
2023-01-22T02:25:50.567Z,14.00
2023-01-22T02:26:50.559Z,14.30
2023-01-22T02:27:50.542Z,13.20
2023-01-22T02:28:50.578Z,14.50
2023-01-22T02:29:50.520Z,14.20
2023-01-22T02:30:50.543Z,13.50
2023-01-22T02:31:50.562Z,15.10
2023-01-22T02:32:50.509Z,14.40
2023-01-22T02:33:50.515Z,14.80
2023-01-22T02:34:50.480Z,14.50
2023-01-22T02:35:50.438Z,14.80
2023-01-22T02:36:50.451Z,14.10
2023-01-22T02:37:50.431Z,13.80
2023-01-22T02:38:50.430Z,13.80
2023-01-22T02:39:50.410Z,14.40
2023-01-22T02:40:50.380Z,14.50
2023-01-22T02:41:50.374Z,13.90
2023-01-22T02:42:50.367Z,13.80
2023-01-22T02:43:50.377Z,13.90
2023-01-22T02:44:50.343Z,13.50
2023-01-22T02:45:50.397Z,13.30
2023-01-22T02:46:50.326Z,13.50
2023-01-22T02:47:50.303Z,12.60
2023-01-22T02:48:50.320Z,13.40
2023-01-22T02:49:50.283Z,13.20
2023-01-22T02:50:50.294Z,13.50
2023-01-22T02:51:50.250Z,13.00
2023-01-22T02:52:50.259Z,13.60
2023-01-22T02:53:50.231Z,13.40
2023-01-22T02:54:50.221Z,13.40
2023-01-22T02:55:50.210Z,13.00
2023-01-22T02:56:50.191Z,12.80
2023-01-22T02:57:50.159Z,14.20
2023-01-22T02:58:50.171Z,13.50
2023-01-22T02:59:50.184Z,13.80
2023-01-22T03:00:50.237Z,13.60
2023-01-22T03:01:50.167Z,13.20
2023-01-22T03:02:50.131Z,13.90
2023-01-22T03:03:50.142Z,14.40
2023-01-22T03:04:50.164Z,14.10
2023-01-22T03:05:50.107Z,12.50
2023-01-22T03:06:50.064Z,13.50
2023-01-22T03:07:50.041Z,12.90
2023-01-22T03:08:50.069Z,13.80
2023-01-22T03:09:50.063Z,13.40
2023-01-22T03:10:50.014Z,13.20
2023-01-22T03:11:50.009Z,13.90
2023-01-22T03:12:49.998Z,13.50
2023-01-22T03:13:49.974Z,13.20
2023-01-22T03:14:49.991Z,13.10
2023-01-22T03:15:49.943Z,13.60
2023-01-22T03:16:50.043Z,12.70
2023-01-22T03:17:49.938Z,14.30
2023-01-22T03:18:49.911Z,14.30
2023-01-22T03:19:49.922Z,15.30
2023-01-22T03:20:49.899Z,14.00
2023-01-22T03:21:49.882Z,13.90
2023-01-22T03:22:49.868Z,14.50
2023-01-22T03:23:49.850Z,13.90
2023-01-22T03:24:49.860Z,13.80
2023-01-22T03:25:49.821Z,13.70
2023-01-22T03:26:49.844Z,14.00
2023-01-22T03:27:49.804Z,13.70
2023-01-22T03:28:49.810Z,13.50
2023-01-22T03:29:49.794Z,14.10
2023-01-22T03:30:49.771Z,14.60
2023-01-22T03:31:49.818Z,14.60
2023-01-22T03:32:49.743Z,13.70
2023-01-22T03:33:49.734Z,15.10
2023-01-22T03:34:49.725Z,14.80
2023-01-22T03:35:49.710Z,15.80
2023-01-22T03:36:49.700Z,15.60
2023-01-22T03:37:49.671Z,15.20
2023-01-22T03:38:49.683Z,14.70
2023-01-22T03:39:49.692Z,15.20
2023-01-22T03:40:49.643Z,15.60
2023-01-22T03:41:49.622Z,15.60
2023-01-22T03:42:49.626Z,14.80
2023-01-22T03:43:49.593Z,14.80
2023-01-22T03:44:49.591Z,15.80
2023-01-22T03:45:49.621Z,15.40
2023-01-22T03:46:49.565Z,16.00
2023-01-22T03:47:49.546Z,15.40
2023-01-22T03:48:49.550Z,15.80
2023-01-22T03:49:49.539Z,15.90
2023-01-22T04:03:24.102Z,12.40
2023-01-22T04:04:24.071Z,12.40
2023-01-22T04:05:24.079Z,15.40
2023-01-22T04:06:24.048Z,16.30
2023-01-22T04:07:24.047Z,16.90
2023-01-22T04:08:24.029Z,16.90
2023-01-22T04:09:24.008Z,17.70
2023-01-22T04:10:24.010Z,16.80
2023-01-22T04:11:24.014Z,17.60
2023-01-22T04:12:23.979Z,18.10
2023-01-22T04:13:23.978Z,17.00
2023-01-22T04:14:23.961Z,17.70
2023-01-22T04:15:23.974Z,17.10
2023-01-22T04:16:23.946Z,15.90
2023-01-22T04:17:31.419Z,16.90
2023-01-22T04:18:23.887Z,15.60
2023-01-22T04:19:23.889Z,17.00
2023-01-22T04:20:23.877Z,16.60
2023-01-22T04:21:23.866Z,17.10
2023-01-22T04:22:23.843Z,16.80
2023-01-22T04:23:23.829Z,17.00
2023-01-22T04:24:23.829Z,14.90
2023-01-22T04:25:23.828Z,16.80
2023-01-22T04:26:23.784Z,16.20
2023-01-22T04:27:23.787Z,16.00
2023-01-22T04:28:23.786Z,16.70
2023-01-22T04:29:23.770Z,16.50
2023-01-22T04:30:23.916Z,15.80
2023-01-22T04:31:23.842Z,16.40
2023-01-22T04:32:23.716Z,16.50
2023-01-22T04:33:23.717Z,17.20
2023-01-22T04:34:23.733Z,17.40
2023-01-22T04:35:23.697Z,17.50
2023-01-22T04:36:23.655Z,16.70
2023-01-22T04:37:23.656Z,16.60
2023-01-22T04:38:23.645Z,17.50
2023-01-22T04:39:23.635Z,17.40
2023-01-22T04:40:23.629Z,18.50
2023-01-22T04:41:23.649Z,18.40
2023-01-22T04:42:23.588Z,18.40
2023-01-22T04:43:23.586Z,18.20
2023-01-22T04:44:23.567Z,17.60
2023-01-22T04:45:23.596Z,17.30
2023-01-22T04:46:23.585Z,17.90
2023-01-22T04:47:23.534Z,16.00
2023-01-22T04:48:23.527Z,17.90
2023-01-22T04:49:23.507Z,16.50
2023-01-22T04:50:23.547Z,16.90
2023-01-22T04:51:23.614Z,15.80
2023-01-22T04:52:23.490Z,17.60
2023-01-22T04:53:23.464Z,17.70
2023-01-22T04:54:23.468Z,17.10
2023-01-22T04:55:23.468Z,17.30
2023-01-22T04:56:23.430Z,16.80
2023-01-22T04:57:23.400Z,16.90
2023-01-22T04:58:23.387Z,16.60
2023-01-22T04:59:23.482Z,17.70
2023-01-22T05:00:23.387Z,16.20
2023-01-22T05:01:23.403Z,17.10
2023-01-22T05:02:23.396Z,16.60
2023-01-22T05:03:23.325Z,16.90
2023-01-22T05:04:23.310Z,17.50
2023-01-22T05:05:23.304Z,16.90
2023-01-22T05:06:23.320Z,17.40
2023-01-22T05:07:23.282Z,16.80
2023-01-22T05:08:23.256Z,18.20
2023-01-22T05:09:23.256Z,17.20
2023-01-22T05:10:23.234Z,17.80
2023-01-22T05:11:23.229Z,16.90
2023-01-22T05:12:23.217Z,17.30
2023-01-22T05:13:23.198Z,16.80
2023-01-22T05:14:23.213Z,16.70
2023-01-22T05:15:28.789Z,15.70
2023-01-22T05:16:24.186Z,17.50
2023-01-22T05:17:23.151Z,16.50
2023-01-22T05:18:23.119Z,16.30
2023-01-22T05:19:23.135Z,17.10
2023-01-22T05:20:23.114Z,17.50
2023-01-22T05:21:23.117Z,17.30
2023-01-22T05:22:23.103Z,17.30
2023-01-22T05:23:23.078Z,17.80
2023-01-22T05:24:23.067Z,18.70
2023-01-22T05:25:23.057Z,17.90
2023-01-22T05:26:23.047Z,18.10
2023-01-22T05:27:23.059Z,17.20
2023-01-22T05:28:23.007Z,17.30
2023-01-22T05:29:23.001Z,18.10
2023-01-22T05:30:23.007Z,18.00
2023-01-22T05:31:23.054Z,17.80
2023-01-22T05:32:22.969Z,17.30
2023-01-22T05:33:22.970Z,18.10
2023-01-22T05:34:22.941Z,18.80
2023-01-22T05:35:22.941Z,17.80
2023-01-22T05:36:22.946Z,18.10
2023-01-22T05:37:22.900Z,18.00
2023-01-22T05:38:22.890Z,18.10
2023-01-22T05:39:24.159Z,17.10
2023-01-22T05:40:22.884Z,17.60
2023-01-22T05:41:22.878Z,17.70
2023-01-22T05:42:22.842Z,17.90
2023-01-22T05:43:22.856Z,18.20
2023-01-22T05:44:22.818Z,17.60
2023-01-22T05:45:22.807Z,18.00
2023-01-22T05:46:22.836Z,18.30
2023-01-22T05:47:22.789Z,17.60
2023-01-22T05:48:22.763Z,17.40
2023-01-22T05:49:22.762Z,17.80
2023-01-22T05:50:22.764Z,18.60
2023-01-22T05:51:22.853Z,17.30
2023-01-22T05:52:22.734Z,18.30
2023-01-22T05:53:22.688Z,17.30
2023-01-22T05:54:22.682Z,18.60
2023-01-22T05:55:22.680Z,18.70
2023-01-22T05:56:22.668Z,18.20
2023-01-22T05:57:22.658Z,18.40
2023-01-22T05:58:22.628Z,18.10
2023-01-22T05:59:22.621Z,17.00
2023-01-22T06:00:22.641Z,18.10
2023-01-22T06:01:22.631Z,18.50
2023-01-22T06:02:22.582Z,18.40
2023-01-22T06:03:22.617Z,17.70
2023-01-22T06:04:22.549Z,17.60
2023-01-22T06:05:22.577Z,18.10
2023-01-22T06:06:22.559Z,18.10
2023-01-22T06:07:22.531Z,18.50
2023-01-22T06:08:22.525Z,16.90
2023-01-22T06:09:22.519Z,18.00
2023-01-22T06:10:22.478Z,18.40
2023-01-22T06:11:22.495Z,17.90
2023-01-22T06:12:22.465Z,18.90
2023-01-22T06:13:22.448Z,18.30
2023-01-22T06:14:22.466Z,17.90
2023-01-22T06:15:22.432Z,18.80
2023-01-22T06:16:22.405Z,17.90
2023-01-22T06:17:22.387Z,17.70
2023-01-22T06:18:22.387Z,17.40
2023-01-22T06:19:22.357Z,18.40
2023-01-22T06:20:22.357Z,17.40
2023-01-22T06:21:22.361Z,18.30
2023-01-22T06:22:22.316Z,17.30
2023-01-22T06:23:22.328Z,18.50
2023-01-22T06:24:22.331Z,17.80
2023-01-22T06:25:22.294Z,17.90
2023-01-22T06:26:22.377Z,18.90
2023-01-22T06:27:22.277Z,18.60
2023-01-22T06:28:22.248Z,17.10
2023-01-22T06:29:22.269Z,18.90
2023-01-22T06:30:22.228Z,17.80
2023-01-22T06:31:22.394Z,18.00
2023-01-22T06:32:22.273Z,18.40
2023-01-22T06:33:22.196Z,19.60
2023-01-22T06:34:22.189Z,19.40
2023-01-22T06:35:22.179Z,18.70
2023-01-22T06:36:22.323Z,17.80
2023-01-22T06:37:22.163Z,18.30
2023-01-22T06:38:22.116Z,18.00
2023-01-22T06:39:22.119Z,17.90
2023-01-22T06:40:22.110Z,17.90
2023-01-22T06:41:22.122Z,18.30
2023-01-22T06:42:22.092Z,18.20
2023-01-22T06:43:22.071Z,18.40
2023-01-22T06:44:22.042Z,17.30
2023-01-22T06:45:22.203Z,18.20
2023-01-22T06:46:22.067Z,17.90
2023-01-22T06:47:22.051Z,17.80
2023-01-22T06:48:22.027Z,18.50
2023-01-22T06:49:21.984Z,18.20
2023-01-22T06:50:21.990Z,16.90
2023-01-22T06:51:22.119Z,16.30
2023-01-22T06:52:22.056Z,18.30
2023-01-22T06:53:21.936Z,17.10
2023-01-22T06:54:22.029Z,17.50
2023-01-22T06:55:21.937Z,16.80
2023-01-22T06:56:22.037Z,17.20
2023-01-22T06:57:21.905Z,17.90
2023-01-22T06:58:21.861Z,16.90
2023-01-22T06:59:21.919Z,17.30
2023-01-22T07:00:21.879Z,17.10
2023-01-22T07:01:21.960Z,18.50
2023-01-22T07:02:21.819Z,17.60
2023-01-22T07:03:21.840Z,16.70
2023-01-22T07:04:21.824Z,16.80
2023-01-22T07:05:23.111Z,17.40
2023-01-22T07:06:21.780Z,16.10
2023-01-22T07:07:21.785Z,17.40
2023-01-22T07:08:21.741Z,18.10
2023-01-22T07:09:21.867Z,17.50
2023-01-22T07:10:21.736Z,17.90
2023-01-22T07:11:21.806Z,18.20
2023-01-22T07:12:21.707Z,18.80
2023-01-22T07:13:21.921Z,18.50
2023-01-22T07:14:35.906Z,18.10
2023-01-22T07:15:22.661Z,17.60
2023-01-22T07:16:21.664Z,20.50
2023-01-22T07:17:21.663Z,19.40
2023-01-22T07:18:21.691Z,22.90
2023-01-22T07:19:21.623Z,22.00
2023-01-22T07:20:21.599Z,20.20
2023-01-22T07:21:21.596Z,20.40
2023-01-22T07:22:21.592Z,21.00
2023-01-22T07:23:21.564Z,21.60
2023-01-22T07:24:21.585Z,20.40
2023-01-22T07:25:21.568Z,18.30
2023-01-22T07:26:21.538Z,18.30
2023-01-22T07:27:21.533Z,17.20
2023-01-22T07:28:21.565Z,18.60
2023-01-22T07:29:21.735Z,17.20
2023-01-22T07:30:21.534Z,18.50
2023-01-22T07:31:21.693Z,19.40
2023-01-22T07:32:21.814Z,17.70
2023-01-22T07:33:21.845Z,19.30
2023-01-22T07:34:21.494Z,19.30
2023-01-22T07:35:21.424Z,19.70
2023-01-22T07:36:21.750Z,19.00
2023-01-22T07:37:21.412Z,19.30
2023-01-22T07:38:22.020Z,18.70
2023-01-22T07:39:21.463Z,18.20
2023-01-22T07:40:21.342Z,17.40
2023-01-22T07:41:26.159Z,17.50
2023-01-22T07:42:22.343Z,17.90
2023-01-22T07:43:21.336Z,18.00
2023-01-22T07:44:21.496Z,17.60
2023-01-22T07:45:21.447Z,17.70
2023-01-22T07:46:21.457Z,17.20
2023-01-22T07:47:21.434Z,18.30
2023-01-22T07:48:21.612Z,17.20
2023-01-22T07:49:21.225Z,18.10
2023-01-22T07:50:21.234Z,19.40
2023-01-22T07:51:21.234Z,18.60
2023-01-22T07:52:21.240Z,19.30
2023-01-22T07:53:21.193Z,17.50
2023-01-22T07:54:21.319Z,19.60
2023-01-22T07:55:21.154Z,18.70
2023-01-22T07:56:21.131Z,17.20
2023-01-22T07:57:21.144Z,17.30
2023-01-22T07:58:21.134Z,17.00
2023-01-22T07:59:21.115Z,17.60
2023-01-22T08:00:21.293Z,17.20
2023-01-22T08:01:21.097Z,16.50
2023-01-22T08:02:21.099Z,18.00
2023-01-22T08:03:21.065Z,16.60
2023-01-22T08:04:21.062Z,16.80
2023-01-22T08:05:21.026Z,17.90
2023-01-22T08:06:21.014Z,17.40
2023-01-22T08:07:20.997Z,17.50
2023-01-22T08:08:21.017Z,17.30
2023-01-22T08:09:20.964Z,15.50
2023-01-22T08:10:21.258Z,16.50
2023-01-22T08:11:20.947Z,15.70
2023-01-22T08:12:20.940Z,15.70
2023-01-22T08:13:20.993Z,16.40
2023-01-22T08:14:20.990Z,15.30
2023-01-22T08:15:20.907Z,15.80
2023-01-22T08:16:20.963Z,12.50
2023-01-22T08:17:20.879Z,15.90
2023-01-22T08:18:22.937Z,14.80
2023-01-22T08:19:20.849Z,14.00
2023-01-22T08:20:21.138Z,13.60
2023-01-22T08:21:20.817Z,13.20
2023-01-22T08:22:20.807Z,13.80
2023-01-22T08:23:22.006Z,13.00
2023-01-22T08:24:20.795Z,13.50
2023-01-22T08:25:20.767Z,13.10
2023-01-22T08:26:20.767Z,12.00
2023-01-22T08:27:20.736Z,11.80
2023-01-22T08:28:20.755Z,11.30
2023-01-22T08:29:20.729Z,10.90
2023-01-22T08:30:20.924Z,12.60
2023-01-22T08:31:28.012Z,10.80
2023-01-22T08:32:21.776Z,12.00
2023-01-22T08:33:20.708Z,12.90
2023-01-22T08:34:20.805Z,12.60
2023-01-22T08:35:20.637Z,13.10
2023-01-22T08:36:20.644Z,13.10
2023-01-22T08:37:20.616Z,13.00
2023-01-22T08:38:20.629Z,12.90
2023-01-22T08:39:20.595Z,12.70
2023-01-22T08:40:20.754Z,13.10
2023-01-22T08:41:20.566Z,12.50
2023-01-22T08:42:20.548Z,12.40
2023-01-22T08:43:20.563Z,13.00
2023-01-22T08:44:20.535Z,12.80
2023-01-22T08:45:20.525Z,13.70
2023-01-22T08:46:20.514Z,14.70
2023-01-22T08:47:20.485Z,13.50
2023-01-22T08:48:20.475Z,13.90
2023-01-22T08:49:20.494Z,13.30
2023-01-22T08:50:20.869Z,12.90
2023-01-22T08:51:20.457Z,12.80
2023-01-22T08:52:20.435Z,13.30
2023-01-22T08:53:20.457Z,13.90
2023-01-22T08:54:20.427Z,13.00
2023-01-22T08:55:20.397Z,12.00
2023-01-22T08:56:20.391Z,13.20
2023-01-22T08:57:20.378Z,13.00
2023-01-22T08:58:20.361Z,13.50
2023-01-22T08:59:20.373Z,12.70
2023-01-22T09:00:20.334Z,12.40
2023-01-22T09:01:20.447Z,12.90
2023-01-22T09:02:20.341Z,12.20
2023-01-22T09:03:20.299Z,12.90
2023-01-22T09:04:20.295Z,15.00
2023-01-22T09:05:20.278Z,15.60
2023-01-22T09:06:20.257Z,18.40
2023-01-22T09:07:20.311Z,17.90
2023-01-22T09:08:20.233Z,17.60
2023-01-22T09:09:20.225Z,18.20
2023-01-22T09:10:21.947Z,16.60
2023-01-22T09:11:20.212Z,15.80
2023-01-22T09:12:20.177Z,16.00
2023-01-22T09:13:20.160Z,14.70
2023-01-22T09:14:20.195Z,14.50
2023-01-22T09:15:20.158Z,14.10
2023-01-22T09:16:20.197Z,15.10
2023-01-22T09:17:20.108Z,15.30
2023-01-22T09:18:20.122Z,15.40
2023-01-22T09:19:20.098Z,14.90
2023-01-22T09:20:20.553Z,14.10
2023-01-22T09:21:20.063Z,13.60
2023-01-22T09:22:20.060Z,13.20
2023-01-22T09:23:20.061Z,12.70
2023-01-22T09:24:20.047Z,13.10
2023-01-22T09:25:20.012Z,12.00
2023-01-22T09:26:20.018Z,12.20
2023-01-22T09:27:19.974Z,14.10
2023-01-22T09:28:19.979Z,13.50
2023-01-22T09:29:19.962Z,13.00
2023-01-22T09:30:20.527Z,13.80
2023-01-22T09:31:19.984Z,12.60
2023-01-22T09:32:19.938Z,11.60
2023-01-22T09:33:19.910Z,11.60
2023-01-22T09:34:19.928Z,11.60
2023-01-22T09:35:19.889Z,11.30
2023-01-22T09:36:19.885Z,11.40
2023-01-22T09:37:19.863Z,11.50
2023-01-22T09:38:19.854Z,11.30
2023-01-22T09:39:19.862Z,11.20
2023-01-22T09:40:19.975Z,11.20
2023-01-22T09:41:19.839Z,10.40
2023-01-22T09:42:19.810Z,10.80
2023-01-22T09:43:19.795Z,11.50
2023-01-22T09:44:19.802Z,10.20
2023-01-22T09:45:19.758Z,12.30
2023-01-22T09:46:19.797Z,12.20
2023-01-22T09:47:19.721Z,12.30
2023-01-22T10:03:47.855Z,10.80
2023-01-22T10:04:47.854Z,10.60
2023-01-22T10:05:47.824Z,12.20
2023-01-22T10:06:47.832Z,13.20
2023-01-22T10:07:47.765Z,12.10
2023-01-22T10:08:47.779Z,11.80
2023-01-22T10:09:47.794Z,12.10
2023-01-22T10:10:47.769Z,11.10
2023-01-22T10:11:47.740Z,12.20
2023-01-22T10:12:47.703Z,11.50
2023-01-22T10:13:47.722Z,11.80
2023-01-22T10:14:47.718Z,12.90
2023-01-22T10:15:47.675Z,12.20
2023-01-22T10:16:47.736Z,12.10
2023-01-22T10:17:47.677Z,12.60
2023-01-22T10:18:47.648Z,12.40
2023-01-22T10:19:47.677Z,12.30
2023-01-22T10:20:47.625Z,12.10
2023-01-22T10:21:47.594Z,12.20
2023-01-22T10:22:47.583Z,13.20
2023-01-22T10:23:47.594Z,11.80
2023-01-22T10:24:47.582Z,12.60
2023-01-22T10:25:47.562Z,12.50
2023-01-22T10:26:47.535Z,10.70
2023-01-22T10:27:47.524Z,11.30
2023-01-22T10:28:47.515Z,9.90
2023-01-22T10:29:47.493Z,9.60
2023-01-22T10:30:47.630Z,10.00
2023-01-22T10:31:47.633Z,9.20
2023-01-22T10:32:47.463Z,9.20
2023-01-22T10:33:47.457Z,9.50
2023-01-22T10:34:47.459Z,9.10
2023-01-22T10:35:47.436Z,9.10
2023-01-22T10:36:47.401Z,8.60
2023-01-22T10:37:47.397Z,8.50
2023-01-22T10:38:47.386Z,8.30
2023-01-22T10:39:47.354Z,8.70
2023-01-22T10:40:47.373Z,8.40
2023-01-22T10:41:47.344Z,8.60
2023-01-22T10:42:47.318Z,8.20
2023-01-22T10:43:47.361Z,8.30
2023-01-22T10:44:47.307Z,8.20
2023-01-22T10:45:47.353Z,8.50
2023-01-22T10:46:47.283Z,8.50
2023-01-22T10:47:47.245Z,9.60
2023-01-22T10:48:47.266Z,9.10
2023-01-22T10:49:47.257Z,9.60
2023-01-22T10:50:47.275Z,10.10
2023-01-22T10:51:47.195Z,10.30
2023-01-22T10:52:47.204Z,11.00
2023-01-22T10:53:47.187Z,11.20
2023-01-22T10:54:47.167Z,12.30
2023-01-22T10:55:47.176Z,13.10
2023-01-22T10:56:47.145Z,13.40
2023-01-22T10:57:47.123Z,13.90
2023-01-22T10:58:47.116Z,13.50
2023-01-22T10:59:47.130Z,13.10
2023-01-22T11:00:52.345Z,12.70
2023-01-22T11:01:48.118Z,12.90
2023-01-22T11:02:47.152Z,12.30
2023-01-22T11:03:47.083Z,13.50
2023-01-22T11:04:47.055Z,12.40
2023-01-22T11:05:47.034Z,11.30
2023-01-22T11:06:47.015Z,11.90
2023-01-22T11:07:46.994Z,11.20
2023-01-22T11:08:47.006Z,11.70
2023-01-22T11:09:46.965Z,11.40
2023-01-22T11:10:46.994Z,11.40
2023-01-22T11:11:46.956Z,11.00
2023-01-22T11:12:46.966Z,11.50
2023-01-22T11:13:46.934Z,12.50
2023-01-22T11:14:46.922Z,11.30
2023-01-22T11:15:46.927Z,11.70
2023-01-22T11:16:46.908Z,11.20
2023-01-22T11:17:46.907Z,10.30
2023-01-22T11:18:46.859Z,10.30
2023-01-22T11:19:46.844Z,10.90
2023-01-22T11:20:46.907Z,9.80
2023-01-22T11:21:46.866Z,10.50
2023-01-22T11:22:46.826Z,11.30
2023-01-22T11:23:46.809Z,10.70
2023-01-22T11:24:46.805Z,10.40
2023-01-22T11:25:46.778Z,9.40
2023-01-22T11:26:46.795Z,9.60
2023-01-22T11:27:46.742Z,10.40
2023-01-22T11:28:46.739Z,9.90
2023-01-22T11:29:46.714Z,10.30
2023-01-22T11:30:46.763Z,9.20
2023-01-22T11:31:46.723Z,9.00
2023-01-22T11:32:46.674Z,9.00
2023-01-22T11:33:46.669Z,7.80
2023-01-22T11:34:46.715Z,8.30
2023-01-22T11:35:46.885Z,8.20
2023-01-22T11:36:46.636Z,9.30
2023-01-22T11:37:46.624Z,8.90
2023-01-22T11:38:46.601Z,8.60
2023-01-22T11:39:46.614Z,8.40
2023-01-22T11:40:46.590Z,8.10
2023-01-22T11:41:46.565Z,8.10
2023-01-22T11:42:46.556Z,7.90
2023-01-22T11:43:46.536Z,8.20
2023-01-22T11:44:46.534Z,8.80
2023-01-22T11:45:46.515Z,8.00
2023-01-22T11:46:46.521Z,7.80
2023-01-22T11:47:46.532Z,8.50
2023-01-22T11:48:46.486Z,13.80
2023-01-22T11:49:46.467Z,14.90
2023-01-22T11:50:46.505Z,15.20
2023-01-22T11:51:46.478Z,16.20
2023-01-22T11:52:46.437Z,9.80
2023-01-22T11:53:46.415Z,9.30
2023-01-22T11:54:46.405Z,8.00
2023-01-22T11:55:46.396Z,8.90
2023-01-22T11:56:46.366Z,7.90
2023-01-22T11:57:46.383Z,7.80
2023-01-22T11:58:46.350Z,8.40
2023-01-22T11:59:46.348Z,7.70
2023-01-22T12:00:46.356Z,8.40
2023-01-22T12:01:46.315Z,8.60
2023-01-22T12:02:46.339Z,7.80
2023-01-22T12:03:46.327Z,8.10
2023-01-22T12:04:46.289Z,7.80
2023-01-22T12:05:46.276Z,8.10
2023-01-22T12:06:46.266Z,8.00
2023-01-22T12:07:46.243Z,8.20
2023-01-22T12:08:46.227Z,7.50
2023-01-22T12:09:46.200Z,7.80
2023-01-22T12:10:46.209Z,8.20
2023-01-22T12:11:46.195Z,8.80
2023-01-22T12:12:46.166Z,9.70
2023-01-22T12:13:46.155Z,9.80
2023-01-22T12:14:46.160Z,9.50
2023-01-22T12:15:46.193Z,9.00
2023-01-22T12:16:46.126Z,8.50
2023-01-22T12:17:46.123Z,8.70
2023-01-22T12:18:46.096Z,9.80
2023-01-22T12:19:46.085Z,8.70
2023-01-22T12:20:46.100Z,7.90
2023-01-22T12:21:46.085Z,8.50
2023-01-22T12:22:46.048Z,8.30
2023-01-22T12:23:46.039Z,8.20
2023-01-22T12:24:46.027Z,8.60
2023-01-22T12:25:46.037Z,8.60
2023-01-22T12:26:46.006Z,9.50
2023-01-22T12:27:45.990Z,7.50
2023-01-22T12:28:45.981Z,8.00
2023-01-22T12:29:45.965Z,8.20
2023-01-22T12:30:45.991Z,7.20
2023-01-22T12:31:46.007Z,7.70
2023-01-22T12:32:45.914Z,7.80
2023-01-22T12:33:45.931Z,7.20
2023-01-22T12:34:45.904Z,7.50
2023-01-22T12:35:45.905Z,8.10
2023-01-22T12:36:45.869Z,8.00
2023-01-22T12:37:45.857Z,8.70
2023-01-22T12:38:45.839Z,8.50
2023-01-22T12:39:45.859Z,7.70
2023-01-22T12:40:45.830Z,7.90
2023-01-22T12:41:45.807Z,8.20
2023-01-22T12:42:45.791Z,7.90
2023-01-22T12:43:45.788Z,8.60
2023-01-22T12:44:45.762Z,8.80
2023-01-22T12:45:45.767Z,8.50
2023-01-22T12:46:45.781Z,8.70
2023-01-22T12:47:45.720Z,8.30
2023-01-22T12:48:45.717Z,8.50
2023-01-22T12:49:45.831Z,8.00
2023-01-22T12:50:45.696Z,6.80
2023-01-22T12:51:45.669Z,6.70
2023-01-22T12:52:45.648Z,6.80
2023-01-22T12:53:45.647Z,7.20
2023-01-22T12:54:45.638Z,7.40
2023-01-22T12:55:45.649Z,7.30
2023-01-22T12:56:45.619Z,8.10
2023-01-22T12:57:45.604Z,7.70
2023-01-22T12:58:45.636Z,7.10
2023-01-22T12:59:45.569Z,7.60
2023-01-22T13:00:45.599Z,7.70
2023-01-22T13:01:45.621Z,7.40
2023-01-22T13:02:45.539Z,6.40
2023-01-22T13:03:45.548Z,6.90
2023-01-22T13:04:45.498Z,7.00
2023-01-22T13:05:45.534Z,5.90
2023-01-22T13:06:45.479Z,7.00
2023-01-22T13:07:45.458Z,6.40
2023-01-22T13:08:45.520Z,6.60
2023-01-22T13:09:45.436Z,6.00
2023-01-22T13:10:45.454Z,6.50
2023-01-22T13:11:45.467Z,6.50
2023-01-22T13:12:45.408Z,6.40
2023-01-22T13:13:45.403Z,6.60
2023-01-22T13:14:45.724Z,6.30
2023-01-22T13:15:45.392Z,7.10
2023-01-22T13:16:45.361Z,6.70
2023-01-22T13:17:47.416Z,6.70
2023-01-22T13:18:45.348Z,6.20
2023-01-22T13:19:45.337Z,6.30
2023-01-22T13:20:45.318Z,6.50
2023-01-22T13:21:45.327Z,6.30
2023-01-22T13:22:45.265Z,6.40
2023-01-22T13:23:45.288Z,6.50
2023-01-22T13:24:45.260Z,6.60
2023-01-22T13:25:45.261Z,8.00